sensor_id;sensor_type;location;lat;lon;timestamp;P1;durP1;ratioP1;P2;durP2;ratioP2
5762;SDS011;2906;53.282;9.508;2023-09-19T00:00:58;3.05;;;1.80;;
5762;SDS011;2906;53.282;9.508;2023-09-19T00:01:59;6.75;;;2.08;;
5762;SDS011;2906;53.282;9.508;2023-09-19T00:03:02;6.07;;;2.08;;
5762;SDS011;2906;53.282;9.508;2023-09-19T00:04:04;5.28;;;1.90;;
5762;SDS011;2906;53.282;9.508;2023-09-19T00:05:10;2.88;;;1.73;;
5762;SDS011;2906;53.282;9.508;2023-09-19T00:06:12;4.68;;;2.28;;
5762;SDS011;2906;53.282;9.508;2023-09-19T00:07:15;8.20;;;1.80;;
5762;SDS011;2906;53.282;9.508;2023-09-19T00:08:18;6.97;;;1.88;;
5762;SDS011;2906;53.282;9.508;2023-09-19T00:09:23;9.95;;;2.30;;
5762;SDS011;2906;53.282;9.508;2023-09-19T00:10:27;5.75;;;2.13;;
5762;SDS011;2906;53.282;9.508;2023-09-19T00:11:31;7.15;;;1.88;;
5762;SDS011;2906;53.282;9.508;2023-09-19T00:12:34;7.22;;;2.45;;
5762;SDS011;2906;53.282;9.508;2023-09-19T00:13:37;4.93;;;1.85;;
5762;SDS011;2906;53.282;9.508;2023-09-19T00:14:39;4.55;;;2.10;;
5762;SDS011;2906;53.282;9.508;2023-09-19T00:15:41;3.33;;;2.45;;
5762;SDS011;2906;53.282;9.508;2023-09-19T00:16:48;3.50;;;1.90;;
5762;SDS011;2906;53.282;9.508;2023-09-19T00:17:51;6.60;;;2.28;;
5762;SDS011;2906;53.282;9.508;2023-09-19T00:18:53;6.90;;;1.77;;
5762;SDS011;2906;53.282;9.508;2023-09-19T00:19:55;3.55;;;1.98;;
5762;SDS011;2906;53.282;9.508;2023-09-19T00:20:57;6.90;;;2.17;;
5762;SDS011;2906;53.282;9.508;2023-09-19T00:21:58;4.75;;;1.90;;
5762;SDS011;2906;53.282;9.508;2023-09-19T00:23:01;2.42;;;1.63;;
5762;SDS011;2906;53.282;9.508;2023-09-19T00:24:08;4.13;;;2.30;;
5762;SDS011;2906;53.282;9.508;2023-09-19T00:25:12;4.13;;;2.10;;
5762;SDS011;2906;53.282;9.508;2023-09-19T00:26:15;8.77;;;2.45;;
5762;SDS011;2906;53.282;9.508;2023-09-19T00:27:18;3.72;;;2.35;;
5762;SDS011;2906;53.282;9.508;2023-09-19T00:28:19;6.13;;;2.38;;
5762;SDS011;2906;53.282;9.508;2023-09-19T00:29:23;3.75;;;2.13;;
5762;SDS011;2906;53.282;9.508;2023-09-19T00:30:25;4.78;;;2.28;;
5762;SDS011;2906;53.282;9.508;2023-09-19T00:31:27;5.50;;;2.50;;
5762;SDS011;2906;53.282;9.508;2023-09-19T00:32:30;7.18;;;2.53;;
5762;SDS011;2906;53.282;9.508;2023-09-19T00:33:31;3.45;;;2.70;;
5762;SDS011;2906;53.282;9.508;2023-09-19T00:34:34;4.82;;;2.53;;
5762;SDS011;2906;53.282;9.508;2023-09-19T00:35:35;6.13;;;2.65;;
5762;SDS011;2906;53.282;9.508;2023-09-19T00:36:38;3.67;;;2.72;;
5762;SDS011;2906;53.282;9.508;2023-09-19T00:37:39;5.75;;;2.25;;
5762;SDS011;2906;53.282;9.508;2023-09-19T00:38:40;8.05;;;2.60;;
5762;SDS011;2906;53.282;9.508;2023-09-19T00:39:44;5.57;;;2.65;;
5762;SDS011;2906;53.282;9.508;2023-09-19T00:40:46;8.20;;;2.63;;
5762;SDS011;2906;53.282;9.508;2023-09-19T00:41:47;6.68;;;2.47;;
5762;SDS011;2906;53.282;9.508;2023-09-19T00:42:50;3.10;;;2.30;;
5762;SDS011;2906;53.282;9.508;2023-09-19T00:43:51;3.08;;;2.55;;
5762;SDS011;2906;53.282;9.508;2023-09-19T00:44:55;9.50;;;2.67;;
5762;SDS011;2906;53.282;9.508;2023-09-19T00:45:56;6.57;;;2.50;;
5762;SDS011;2906;53.282;9.508;2023-09-19T00:47:01;6.75;;;2.35;;
5762;SDS011;2906;53.282;9.508;2023-09-19T00:48:03;2.78;;;2.33;;
5762;SDS011;2906;53.282;9.508;2023-09-19T00:49:06;3.42;;;2.45;;
5762;SDS011;2906;53.282;9.508;2023-09-19T00:50:09;8.13;;;3.13;;
5762;SDS011;2906;53.282;9.508;2023-09-19T00:51:14;4.65;;;2.67;;
5762;SDS011;2906;53.282;9.508;2023-09-19T00:52:19;4.82;;;3.00;;
5762;SDS011;2906;53.282;9.508;2023-09-19T00:53:23;4.00;;;2.20;;
5762;SDS011;2906;53.282;9.508;2023-09-19T00:54:25;6.00;;;2.55;;
5762;SDS011;2906;53.282;9.508;2023-09-19T00:55:29;10.63;;;2.65;;
5762;SDS011;2906;53.282;9.508;2023-09-19T00:56:32;10.20;;;3.42;;
5762;SDS011;2906;53.282;9.508;2023-09-19T00:57:35;5.10;;;2.30;;
5762;SDS011;2906;53.282;9.508;2023-09-19T00:58:38;5.80;;;2.67;;
5762;SDS011;2906;53.282;9.508;2023-09-19T00:59:40;5.20;;;3.03;;
5762;SDS011;2906;53.282;9.508;2023-09-19T01:00:43;7.07;;;3.45;;
5762;SDS011;2906;53.282;9.508;2023-09-19T01:01:45;11.68;;;3.10;;
5762;SDS011;2906;53.282;9.508;2023-09-19T01:02:53;4.93;;;3.10;;
5762;SDS011;2906;53.282;9.508;2023-09-19T01:03:55;6.72;;;3.20;;
5762;SDS011;2906;53.282;9.508;2023-09-19T01:04:58;3.63;;;2.25;;
5762;SDS011;2906;53.282;9.508;2023-09-19T01:06:00;8.40;;;3.03;;
5762;SDS011;2906;53.282;9.508;2023-09-19T01:07:02;9.05;;;2.80;;
5762;SDS011;2906;53.282;9.508;2023-09-19T01:08:04;5.68;;;3.00;;
5762;SDS011;2906;53.282;9.508;2023-09-19T01:09:06;8.40;;;2.83;;
5762;SDS011;2906;53.282;9.508;2023-09-19T01:10:09;4.10;;;2.42;;
5762;SDS011;2906;53.282;9.508;2023-09-19T01:11:14;9.90;;;3.30;;
5762;SDS011;2906;53.282;9.508;2023-09-19T01:12:22;7.43;;;2.90;;
5762;SDS011;2906;53.282;9.508;2023-09-19T01:13:27;8.15;;;3.30;;
5762;SDS011;2906;53.282;9.508;2023-09-19T01:14:33;3.75;;;2.20;;
5762;SDS011;2906;53.282;9.508;2023-09-19T01:15:40;5.85;;;2.72;;
5762;SDS011;2906;53.282;9.508;2023-09-19T01:16:50;8.73;;;3.60;;
5762;SDS011;2906;53.282;9.508;2023-09-19T01:17:56;3.42;;;2.70;;
5762;SDS011;2906;53.282;9.508;2023-09-19T01:19:01;12.25;;;2.60;;
5762;SDS011;2906;53.282;9.508;2023-09-19T01:20:09;5.10;;;3.05;;
5762;SDS011;2906;53.282;9.508;2023-09-19T01:21:15;5.78;;;2.88;;
5762;SDS011;2906;53.282;9.508;2023-09-19T01:22:21;4.78;;;2.70;;
5762;SDS011;2906;53.282;9.508;2023-09-19T01:23:23;5.55;;;3.10;;
5762;SDS011;2906;53.282;9.508;2023-09-19T01:28:20;5.40;;;2.78;;
5762;SDS011;2906;53.282;9.508;2023-09-19T01:29:30;8.63;;;3.45;;
5762;SDS011;2906;53.282;9.508;2023-09-19T01:30:39;7.95;;;3.13;;
5762;SDS011;2906;53.282;9.508;2023-09-19T01:31:43;4.55;;;2.60;;
5762;SDS011;2906;53.282;9.508;2023-09-19T01:32:46;12.27;;;3.05;;
5762;SDS011;2906;53.282;9.508;2023-09-19T01:33:53;6.97;;;3.40;;
5762;SDS011;2906;53.282;9.508;2023-09-19T01:34:59;5.18;;;2.83;;
5762;SDS011;2906;53.282;9.508;2023-09-19T01:36:04;11.10;;;3.60;;
5762;SDS011;2906;53.282;9.508;2023-09-19T01:37:09;5.03;;;2.67;;
5762;SDS011;2906;53.282;9.508;2023-09-19T01:38:10;7.65;;;3.22;;
5762;SDS011;2906;53.282;9.508;2023-09-19T01:39:20;11.75;;;2.80;;
5762;SDS011;2906;53.282;9.508;2023-09-19T01:40:21;4.97;;;3.00;;
5762;SDS011;2906;53.282;9.508;2023-09-19T01:41:26;5.93;;;2.58;;
5762;SDS011;2906;53.282;9.508;2023-09-19T01:42:31;9.00;;;2.80;;
5762;SDS011;2906;53.282;9.508;2023-09-19T01:43:38;5.47;;;2.47;;
5762;SDS011;2906;53.282;9.508;2023-09-19T01:44:44;7.60;;;3.53;;
5762;SDS011;2906;53.282;9.508;2023-09-19T01:45:54;13.20;;;2.92;;
5762;SDS011;2906;53.282;9.508;2023-09-19T01:46:58;6.55;;;2.40;;
5762;SDS011;2906;53.282;9.508;2023-09-19T01:48:04;7.80;;;3.58;;
5762;SDS011;2906;53.282;9.508;2023-09-19T01:49:10;7.43;;;3.38;;
5762;SDS011;2906;53.282;9.508;2023-09-19T01:50:17;11.13;;;3.38;;
5762;SDS011;2906;53.282;9.508;2023-09-19T01:51:20;8.35;;;2.78;;
5762;SDS011;2906;53.282;9.508;2023-09-19T01:52:25;9.57;;;3.08;;
5762;SDS011;2906;53.282;9.508;2023-09-19T01:53:30;4.57;;;2.80;;
5762;SDS011;2906;53.282;9.508;2023-09-19T01:54:36;6.50;;;2.40;;
5762;SDS011;2906;53.282;9.508;2023-09-19T01:55:43;5.15;;;2.65;;
5762;SDS011;2906;53.282;9.508;2023-09-19T01:56:50;9.18;;;2.90;;
5762;SDS011;2906;53.282;9.508;2023-09-19T01:57:54;10.40;;;3.30;;
5762;SDS011;2906;53.282;9.508;2023-09-19T01:59:01;5.00;;;2.20;;
5762;SDS011;2906;53.282;9.508;2023-09-19T02:00:05;7.38;;;2.55;;
5762;SDS011;2906;53.282;9.508;2023-09-19T02:01:10;9.10;;;3.03;;
5762;SDS011;2906;53.282;9.508;2023-09-19T02:02:13;6.00;;;3.00;;
5762;SDS011;2906;53.282;9.508;2023-09-19T02:03:16;6.07;;;3.15;;
5762;SDS011;2906;53.282;9.508;2023-09-19T02:04:17;12.45;;;2.85;;
5762;SDS011;2906;53.282;9.508;2023-09-19T02:05:22;8.80;;;3.67;;
5762;SDS011;2906;53.282;9.508;2023-09-19T02:06:25;8.82;;;2.90;;
5762;SDS011;2906;53.282;9.508;2023-09-19T02:07:28;9.88;;;2.70;;
5762;SDS011;2906;53.282;9.508;2023-09-19T02:08:31;10.95;;;3.67;;
5762;SDS011;2906;53.282;9.508;2023-09-19T02:09:33;7.57;;;2.55;;
5762;SDS011;2906;53.282;9.508;2023-09-19T02:10:38;12.73;;;3.20;;
5762;SDS011;2906;53.282;9.508;2023-09-19T02:11:41;6.10;;;2.83;;
5762;SDS011;2906;53.282;9.508;2023-09-19T02:12:43;7.05;;;2.47;;
5762;SDS011;2906;53.282;9.508;2023-09-19T02:13:45;6.63;;;2.63;;
5762;SDS011;2906;53.282;9.508;2023-09-19T02:14:47;6.78;;;2.85;;
5762;SDS011;2906;53.282;9.508;2023-09-19T02:15:48;8.10;;;2.40;;
5762;SDS011;2906;53.282;9.508;2023-09-19T02:16:52;10.13;;;3.30;;
5762;SDS011;2906;53.282;9.508;2023-09-19T02:17:53;9.02;;;3.03;;
5762;SDS011;2906;53.282;9.508;2023-09-19T02:18:56;13.88;;;2.90;;
5762;SDS011;2906;53.282;9.508;2023-09-19T02:20:00;5.25;;;2.05;;
5762;SDS011;2906;53.282;9.508;2023-09-19T02:21:03;32.67;;;2.70;;
5762;SDS011;2906;53.282;9.508;2023-09-19T02:22:07;7.47;;;2.28;;
5762;SDS011;2906;53.282;9.508;2023-09-19T02:23:10;10.57;;;2.70;;
5762;SDS011;2906;53.282;9.508;2023-09-19T02:24:12;6.47;;;2.15;;
5762;SDS011;2906;53.282;9.508;2023-09-19T02:25:15;6.95;;;2.60;;
5762;SDS011;2906;53.282;9.508;2023-09-19T02:26:17;8.18;;;2.65;;
5762;SDS011;2906;53.282;9.508;2023-09-19T02:27:20;11.50;;;2.47;;
5762;SDS011;2906;53.282;9.508;2023-09-19T02:28:21;6.20;;;2.45;;
5762;SDS011;2906;53.282;9.508;2023-09-19T02:29:23;8.88;;;2.70;;
5762;SDS011;2906;53.282;9.508;2023-09-19T02:30:26;6.00;;;2.45;;
5762;SDS011;2906;53.282;9.508;2023-09-19T02:31:28;5.10;;;1.98;;
5762;SDS011;2906;53.282;9.508;2023-09-19T02:32:31;5.72;;;2.28;;
5762;SDS011;2906;53.282;9.508;2023-09-19T02:33:36;7.90;;;2.17;;
5762;SDS011;2906;53.282;9.508;2023-09-19T02:34:38;3.55;;;1.58;;
5762;SDS011;2906;53.282;9.508;2023-09-19T02:35:39;7.20;;;2.10;;
5762;SDS011;2906;53.282;9.508;2023-09-19T02:36:40;7.93;;;1.90;;
5762;SDS011;2906;53.282;9.508;2023-09-19T02:37:44;9.68;;;1.90;;
5762;SDS011;2906;53.282;9.508;2023-09-19T02:38:45;6.75;;;2.10;;
5762;SDS011;2906;53.282;9.508;2023-09-19T02:39:48;5.80;;;2.10;;
5762;SDS011;2906;53.282;9.508;2023-09-19T02:40:49;5.13;;;1.70;;
5762;SDS011;2906;53.282;9.508;2023-09-19T02:41:51;5.03;;;1.90;;
5762;SDS011;2906;53.282;9.508;2023-09-19T02:42:53;4.68;;;1.90;;
5762;SDS011;2906;53.282;9.508;2023-09-19T02:43:56;6.47;;;1.98;;
5762;SDS011;2906;53.282;9.508;2023-09-19T02:44:58;8.90;;;2.30;;
5762;SDS011;2906;53.282;9.508;2023-09-19T02:46:00;3.85;;;1.58;;
5762;SDS011;2906;53.282;9.508;2023-09-19T02:47:03;4.38;;;1.80;;
5762;SDS011;2906;53.282;9.508;2023-09-19T02:48:06;6.88;;;1.70;;
5762;SDS011;2906;53.282;9.508;2023-09-19T02:49:08;2.78;;;1.35;;
5762;SDS011;2906;53.282;9.508;2023-09-19T02:50:10;5.53;;;1.58;;
5762;SDS011;2906;53.282;9.508;2023-09-19T02:51:12;3.63;;;1.50;;
5762;SDS011;2906;53.282;9.508;2023-09-19T02:52:14;3.78;;;1.27;;
5762;SDS011;2906;53.282;9.508;2023-09-19T02:53:16;7.45;;;1.30;;
5762;SDS011;2906;53.282;9.508;2023-09-19T02:54:19;3.33;;;1.10;;
5762;SDS011;2906;53.282;9.508;2023-09-19T02:55:22;3.92;;;1.20;;
5762;SDS011;2906;53.282;9.508;2023-09-19T02:56:23;7.70;;;1.35;;
5762;SDS011;2906;53.282;9.508;2023-09-19T02:57:25;5.00;;;1.35;;
5762;SDS011;2906;53.282;9.508;2023-09-19T02:58:27;3.42;;;1.45;;
5762;SDS011;2906;53.282;9.508;2023-09-19T02:59:31;6.05;;;1.10;;
5762;SDS011;2906;53.282;9.508;2023-09-19T03:00:32;9.25;;;1.52;;
5762;SDS011;2906;53.282;9.508;2023-09-19T03:01:35;3.83;;;1.55;;
5762;SDS011;2906;53.282;9.508;2023-09-19T03:02:37;3.88;;;1.20;;
5762;SDS011;2906;53.282;9.508;2023-09-19T03:03:42;7.85;;;1.27;;
5762;SDS011;2906;53.282;9.508;2023-09-19T03:04:45;1.67;;;0.90;;
5762;SDS011;2906;53.282;9.508;2023-09-19T03:05:47;5.88;;;1.10;;
5762;SDS011;2906;53.282;9.508;2023-09-19T03:06:51;1.40;;;1.13;;
5762;SDS011;2906;53.282;9.508;2023-09-19T03:07:56;3.65;;;1.13;;
5762;SDS011;2906;53.282;9.508;2023-09-19T03:09:00;3.75;;;1.10;;
5762;SDS011;2906;53.282;9.508;2023-09-19T03:10:06;7.28;;;1.15;;
5762;SDS011;2906;53.282;9.508;2023-09-19T03:11:09;3.47;;;1.25;;
5762;SDS011;2906;53.282;9.508;2023-09-19T03:12:11;6.63;;;1.30;;
5762;SDS011;2906;53.282;9.508;2023-09-19T03:13:16;5.75;;;0.90;;
5762;SDS011;2906;53.282;9.508;2023-09-19T03:14:17;1.85;;;1.00;;
5762;SDS011;2906;53.282;9.508;2023-09-19T03:15:20;3.38;;;1.23;;
5762;SDS011;2906;53.282;9.508;2023-09-19T03:16:21;3.55;;;1.35;;
5762;SDS011;2906;53.282;9.508;2023-09-19T03:17:25;2.88;;;1.05;;
5762;SDS011;2906;53.282;9.508;2023-09-19T03:18:27;5.63;;;1.45;;
5762;SDS011;2906;53.282;9.508;2023-09-19T03:19:30;4.05;;;1.27;;
5762;SDS011;2906;53.282;9.508;2023-09-19T03:20:33;5.55;;;1.20;;
5762;SDS011;2906;53.282;9.508;2023-09-19T03:21:36;2.15;;;0.90;;
5762;SDS011;2906;53.282;9.508;2023-09-19T03:22:39;4.25;;;1.50;;
5762;SDS011;2906;53.282;9.508;2023-09-19T03:23:41;1.83;;;0.90;;
5762;SDS011;2906;53.282;9.508;2023-09-19T03:24:43;5.85;;;1.50;;
5762;SDS011;2906;53.282;9.508;2023-09-19T03:25:46;4.00;;;1.00;;
5762;SDS011;2906;53.282;9.508;2023-09-19T03:26:48;3.45;;;0.98;;
5762;SDS011;2906;53.282;9.508;2023-09-19T03:27:51;5.50;;;1.40;;
5762;SDS011;2906;53.282;9.508;2023-09-19T03:28:53;3.30;;;1.33;;
5762;SDS011;2906;53.282;9.508;2023-09-19T03:29:55;2.55;;;1.10;;
5762;SDS011;2906;53.282;9.508;2023-09-19T03:31:01;3.72;;;1.15;;
5762;SDS011;2906;53.282;9.508;2023-09-19T03:32:03;2.95;;;1.25;;
5762;SDS011;2906;53.282;9.508;2023-09-19T03:33:05;9.93;;;1.05;;
5762;SDS011;2906;53.282;9.508;2023-09-19T03:34:08;2.95;;;1.25;;
5762;SDS011;2906;53.282;9.508;2023-09-19T03:35:10;3.85;;;0.98;;
5762;SDS011;2906;53.282;9.508;2023-09-19T03:36:14;3.45;;;0.93;;
5762;SDS011;2906;53.282;9.508;2023-09-19T03:37:16;3.95;;;1.30;;
5762;SDS011;2906;53.282;9.508;2023-09-19T03:38:18;3.20;;;1.20;;
5762;SDS011;2906;53.282;9.508;2023-09-19T03:39:19;3.85;;;1.27;;
5762;SDS011;2906;53.282;9.508;2023-09-19T03:40:22;5.20;;;1.23;;
5762;SDS011;2906;53.282;9.508;2023-09-19T03:41:23;4.68;;;1.25;;
5762;SDS011;2906;53.282;9.508;2023-09-19T03:42:25;2.47;;;1.10;;
5762;SDS011;2906;53.282;9.508;2023-09-19T03:43:27;3.25;;;1.02;;
5762;SDS011;2906;53.282;9.508;2023-09-19T03:44:28;3.92;;;1.30;;
5762;SDS011;2906;53.282;9.508;2023-09-19T03:45:30;6.72;;;1.55;;
5762;SDS011;2906;53.282;9.508;2023-09-19T03:46:32;4.93;;;1.10;;
5762;SDS011;2906;53.282;9.508;2023-09-19T03:47:35;4.18;;;1.50;;
5762;SDS011;2906;53.282;9.508;2023-09-19T03:48:37;5.88;;;1.40;;
5762;SDS011;2906;53.282;9.508;2023-09-19T03:49:39;5.97;;;1.50;;
5762;SDS011;2906;53.282;9.508;2023-09-19T03:50:42;7.72;;;1.05;;
5762;SDS011;2906;53.282;9.508;2023-09-19T03:51:44;5.43;;;1.35;;
5762;SDS011;2906;53.282;9.508;2023-09-19T03:52:46;8.43;;;1.20;;
5762;SDS011;2906;53.282;9.508;2023-09-19T03:53:48;2.67;;;0.85;;
5762;SDS011;2906;53.282;9.508;2023-09-19T03:54:50;4.32;;;1.23;;
5762;SDS011;2906;53.282;9.508;2023-09-19T03:55:52;2.95;;;0.98;;
5762;SDS011;2906;53.282;9.508;2023-09-19T03:56:54;4.00;;;1.48;;
5762;SDS011;2906;53.282;9.508;2023-09-19T03:57:56;5.47;;;1.52;;
5762;SDS011;2906;53.282;9.508;2023-09-19T03:58:57;5.50;;;1.40;;
5762;SDS011;2906;53.282;9.508;2023-09-19T03:59:59;4.00;;;1.25;;
5762;SDS011;2906;53.282;9.508;2023-09-19T04:01:01;4.70;;;1.70;;
5762;SDS011;2906;53.282;9.508;2023-09-19T04:02:03;3.33;;;1.15;;
5762;SDS011;2906;53.282;9.508;2023-09-19T04:03:11;4.13;;;1.50;;
5762;SDS011;2906;53.282;9.508;2023-09-19T04:04:19;4.20;;;1.10;;
5762;SDS011;2906;53.282;9.508;2023-09-19T04:05:20;8.40;;;1.17;;
5762;SDS011;2906;53.282;9.508;2023-09-19T04:06:24;5.40;;;1.40;;
5762;SDS011;2906;53.282;9.508;2023-09-19T04:07:27;7.40;;;1.35;;
5762;SDS011;2906;53.282;9.508;2023-09-19T04:08:30;2.90;;;1.40;;
5762;SDS011;2906;53.282;9.508;2023-09-19T04:09:31;3.85;;;1.08;;
5762;SDS011;2906;53.282;9.508;2023-09-19T04:10:33;4.68;;;1.60;;
5762;SDS011;2906;53.282;9.508;2023-09-19T04:11:35;4.20;;;1.55;;
5762;SDS011;2906;53.282;9.508;2023-09-19T04:12:38;6.35;;;1.25;;
5762;SDS011;2906;53.282;9.508;2023-09-19T04:13:39;7.90;;;1.60;;
5762;SDS011;2906;53.282;9.508;2023-09-19T04:14:41;8.27;;;1.20;;
5762;SDS011;2906;53.282;9.508;2023-09-19T04:15:42;7.90;;;1.50;;
5762;SDS011;2906;53.282;9.508;2023-09-19T04:16:46;7.25;;;1.50;;
5762;SDS011;2906;53.282;9.508;2023-09-19T04:17:47;3.78;;;1.13;;
5762;SDS011;2906;53.282;9.508;2023-09-19T04:18:50;11.57;;;1.90;;
5762;SDS011;2906;53.282;9.508;2023-09-19T04:19:51;3.45;;;1.10;;
5762;SDS011;2906;53.282;9.508;2023-09-19T04:20:53;12.13;;;2.00;;
5762;SDS011;2906;53.282;9.508;2023-09-19T04:21:57;5.82;;;1.40;;
5762;SDS011;2906;53.282;9.508;2023-09-19T04:22:59;4.28;;;1.55;;
5762;SDS011;2906;53.282;9.508;2023-09-19T04:24:01;7.82;;;1.80;;
5762;SDS011;2906;53.282;9.508;2023-09-19T04:25:03;5.13;;;1.73;;
5762;SDS011;2906;53.282;9.508;2023-09-19T04:26:06;6.53;;;1.40;;
5762;SDS011;2906;53.282;9.508;2023-09-19T04:27:09;4.03;;;1.40;;
5762;SDS011;2906;53.282;9.508;2023-09-19T04:28:10;8.57;;;1.90;;
5762;SDS011;2906;53.282;9.508;2023-09-19T04:29:12;3.92;;;1.48;;
5762;SDS011;2906;53.282;9.508;2023-09-19T04:30:14;8.77;;;2.20;;
5762;SDS011;2906;53.282;9.508;2023-09-19T04:31:16;5.45;;;2.03;;
5762;SDS011;2906;53.282;9.508;2023-09-19T04:32:18;10.30;;;1.85;;
5762;SDS011;2906;53.282;9.508;2023-09-19T04:33:22;4.15;;;1.50;;
5762;SDS011;2906;53.282;9.508;2023-09-19T04:34:23;8.18;;;1.90;;
5762;SDS011;2906;53.282;9.508;2023-09-19T04:35:25;5.88;;;1.63;;
5762;SDS011;2906;53.282;9.508;2023-09-19T04:36:26;4.97;;;1.70;;
5762;SDS011;2906;53.282;9.508;2023-09-19T04:37:29;8.13;;;1.70;;
5762;SDS011;2906;53.282;9.508;2023-09-19T04:38:31;7.65;;;1.75;;
5762;SDS011;2906;53.282;9.508;2023-09-19T04:39:33;3.15;;;1.27;;
5762;SDS011;2906;53.282;9.508;2023-09-19T04:40:35;10.73;;;1.83;;
5762;SDS011;2906;53.282;9.508;2023-09-19T04:41:38;7.13;;;1.17;;
5762;SDS011;2906;53.282;9.508;2023-09-19T04:42:41;7.07;;;1.33;;
5762;SDS011;2906;53.282;9.508;2023-09-19T04:43:42;9.70;;;1.80;;
5762;SDS011;2906;53.282;9.508;2023-09-19T04:44:45;4.55;;;1.35;;
5762;SDS011;2906;53.282;9.508;2023-09-19T04:45:49;8.95;;;1.65;;
5762;SDS011;2906;53.282;9.508;2023-09-19T04:46:54;12.35;;;1.63;;
5762;SDS011;2906;53.282;9.508;2023-09-19T04:47:56;10.77;;;2.70;;
5762;SDS011;2906;53.282;9.508;2023-09-19T04:48:58;6.78;;;1.90;;
5762;SDS011;2906;53.282;9.508;2023-09-19T04:49:59;8.10;;;1.55;;
5762;SDS011;2906;53.282;9.508;2023-09-19T04:51:00;12.57;;;2.00;;
5762;SDS011;2906;53.282;9.508;2023-09-19T04:52:03;6.18;;;1.20;;
5762;SDS011;2906;53.282;9.508;2023-09-19T04:53:06;13.40;;;2.33;;
5762;SDS011;2906;53.282;9.508;2023-09-19T04:54:08;10.20;;;1.77;;
5762;SDS011;2906;53.282;9.508;2023-09-19T04:55:10;5.70;;;1.50;;
5762;SDS011;2906;53.282;9.508;2023-09-19T04:56:17;8.85;;;1.40;;
5762;SDS011;2906;53.282;9.508;2023-09-19T04:57:21;5.85;;;1.50;;
5762;SDS011;2906;53.282;9.508;2023-09-19T04:58:22;8.77;;;2.13;;
5762;SDS011;2906;53.282;9.508;2023-09-19T04:59:24;5.32;;;1.30;;
5762;SDS011;2906;53.282;9.508;2023-09-19T05:00:25;8.82;;;2.30;;
5762;SDS011;2906;53.282;9.508;2023-09-19T05:01:30;5.28;;;1.48;;
5762;SDS011;2906;53.282;9.508;2023-09-19T05:02:32;4.95;;;1.70;;
5762;SDS011;2906;53.282;9.508;2023-09-19T05:03:34;4.68;;;1.65;;
5762;SDS011;2906;53.282;9.508;2023-09-19T05:04:36;4.65;;;1.67;;
5762;SDS011;2906;53.282;9.508;2023-09-19T05:05:38;5.97;;;1.60;;
5762;SDS011;2906;53.282;9.508;2023-09-19T05:06:41;8.05;;;1.40;;
5762;SDS011;2906;53.282;9.508;2023-09-19T05:07:43;11.07;;;1.83;;
5762;SDS011;2906;53.282;9.508;2023-09-19T05:08:45;5.30;;;1.50;;
5762;SDS011;2906;53.282;9.508;2023-09-19T05:09:50;6.70;;;1.50;;
5762;SDS011;2906;53.282;9.508;2023-09-19T05:10:51;8.05;;;1.92;;
5762;SDS011;2906;53.282;9.508;2023-09-19T05:11:56;11.73;;;2.45;;
5762;SDS011;2906;53.282;9.508;2023-09-19T05:12:58;10.93;;;2.72;;
5762;SDS011;2906;53.282;9.508;2023-09-19T05:14:00;7.65;;;1.65;;
5762;SDS011;2906;53.282;9.508;2023-09-19T05:15:04;7.10;;;1.60;;
5762;SDS011;2906;53.282;9.508;2023-09-19T05:16:07;5.90;;;2.00;;
5762;SDS011;2906;53.282;9.508;2023-09-19T05:17:10;6.18;;;2.20;;
5762;SDS011;2906;53.282;9.508;2023-09-19T05:18:12;4.00;;;1.50;;
5762;SDS011;2906;53.282;9.508;2023-09-19T05:19:13;14.90;;;2.17;;
5762;SDS011;2906;53.282;9.508;2023-09-19T05:20:15;14.85;;;2.28;;
5762;SDS011;2906;53.282;9.508;2023-09-19T05:21:18;8.77;;;2.65;;
5762;SDS011;2906;53.282;9.508;2023-09-19T05:22:20;7.20;;;2.45;;
5762;SDS011;2906;53.282;9.508;2023-09-19T05:23:22;11.57;;;3.15;;
5762;SDS011;2906;53.282;9.508;2023-09-19T05:24:25;6.47;;;2.00;;
5762;SDS011;2906;53.282;9.508;2023-09-19T05:25:27;11.77;;;2.22;;
5762;SDS011;2906;53.282;9.508;2023-09-19T05:26:29;10.57;;;2.30;;
5762;SDS011;2906;53.282;9.508;2023-09-19T05:27:31;6.25;;;1.65;;
5762;SDS011;2906;53.282;9.508;2023-09-19T05:28:34;8.70;;;2.28;;
5762;SDS011;2906;53.282;9.508;2023-09-19T05:29:36;4.78;;;1.77;;
5762;SDS011;2906;53.282;9.508;2023-09-19T05:30:38;7.32;;;1.48;;
5762;SDS011;2906;53.282;9.508;2023-09-19T05:31:39;12.90;;;2.17;;
5762;SDS011;2906;53.282;9.508;2023-09-19T05:32:43;9.57;;;1.88;;
5762;SDS011;2906;53.282;9.508;2023-09-19T05:33:44;6.15;;;1.90;;
5762;SDS011;2906;53.282;9.508;2023-09-19T05:34:46;8.25;;;2.35;;
5762;SDS011;2906;53.282;9.508;2023-09-19T05:35:48;7.82;;;1.70;;
5762;SDS011;2906;53.282;9.508;2023-09-19T05:36:50;4.85;;;1.80;;
5762;SDS011;2906;53.282;9.508;2023-09-19T05:37:52;14.00;;;2.67;;
5762;SDS011;2906;53.282;9.508;2023-09-19T05:38:56;7.70;;;1.75;;
5762;SDS011;2906;53.282;9.508;2023-09-19T05:39:58;3.88;;;1.60;;
5762;SDS011;2906;53.282;9.508;2023-09-19T05:41:00;12.52;;;2.70;;
5762;SDS011;2906;53.282;9.508;2023-09-19T05:42:02;8.57;;;1.73;;
5762;SDS011;2906;53.282;9.508;2023-09-19T05:43:05;6.82;;;2.08;;
5762;SDS011;2906;53.282;9.508;2023-09-19T05:44:06;8.20;;;2.10;;
5762;SDS011;2906;53.282;9.508;2023-09-19T05:45:08;6.82;;;2.60;;
5762;SDS011;2906;53.282;9.508;2023-09-19T05:46:12;10.13;;;2.20;;
5762;SDS011;2906;53.282;9.508;2023-09-19T05:47:16;15.07;;;2.50;;
5762;SDS011;2906;53.282;9.508;2023-09-19T05:48:18;6.57;;;2.28;;
5762;SDS011;2906;53.282;9.508;2023-09-19T05:49:21;6.25;;;2.15;;
5762;SDS011;2906;53.282;9.508;2023-09-19T05:50:24;6.60;;;2.20;;
5762;SDS011;2906;53.282;9.508;2023-09-19T05:51:26;10.38;;;2.13;;
5762;SDS011;2906;53.282;9.508;2023-09-19T05:52:28;11.55;;;2.20;;
5762;SDS011;2906;53.282;9.508;2023-09-19T05:53:30;9.98;;;1.98;;
5762;SDS011;2906;53.282;9.508;2023-09-19T05:54:32;15.15;;;2.85;;
5762;SDS011;2906;53.282;9.508;2023-09-19T05:55:38;7.50;;;1.85;;
5762;SDS011;2906;53.282;9.508;2023-09-19T05:56:41;9.00;;;1.88;;
5762;SDS011;2906;53.282;9.508;2023-09-19T05:57:42;13.50;;;2.00;;
5762;SDS011;2906;53.282;9.508;2023-09-19T05:58:44;6.28;;;1.80;;
5762;SDS011;2906;53.282;9.508;2023-09-19T05:59:46;8.88;;;2.70;;
5762;SDS011;2906;53.282;9.508;2023-09-19T06:00:50;10.13;;;1.95;;
5762;SDS011;2906;53.282;9.508;2023-09-19T06:01:52;11.52;;;2.20;;
5762;SDS011;2906;53.282;9.508;2023-09-19T06:02:56;7.43;;;2.72;;
5762;SDS011;2906;53.282;9.508;2023-09-19T06:03:57;8.05;;;1.95;;
5762;SDS011;2906;53.282;9.508;2023-09-19T06:05:00;10.98;;;1.95;;
5762;SDS011;2906;53.282;9.508;2023-09-19T06:06:01;13.25;;;2.00;;
5762;SDS011;2906;53.282;9.508;2023-09-19T06:07:04;9.95;;;2.50;;
5762;SDS011;2906;53.282;9.508;2023-09-19T06:08:05;9.40;;;2.60;;
5762;SDS011;2906;53.282;9.508;2023-09-19T06:09:09;11.07;;;2.25;;
5762;SDS011;2906;53.282;9.508;2023-09-19T06:10:10;7.80;;;1.98;;
5762;SDS011;2906;53.282;9.508;2023-09-19T06:11:14;6.78;;;1.70;;
5762;SDS011;2906;53.282;9.508;2023-09-19T06:12:16;10.40;;;2.15;;
5762;SDS011;2906;53.282;9.508;2023-09-19T06:13:18;14.27;;;2.83;;
5762;SDS011;2906;53.282;9.508;2023-09-19T06:14:20;9.57;;;2.67;;
5762;SDS011;2906;53.282;9.508;2023-09-19T06:15:23;6.25;;;1.88;;
5762;SDS011;2906;53.282;9.508;2023-09-19T06:16:25;14.93;;;2.65;;
5762;SDS011;2906;53.282;9.508;2023-09-19T06:17:27;9.65;;;1.75;;
5762;SDS011;2906;53.282;9.508;2023-09-19T06:18:28;5.55;;;1.65;;
5762;SDS011;2906;53.282;9.508;2023-09-19T06:19:33;9.38;;;2.00;;
5762;SDS011;2906;53.282;9.508;2023-09-19T06:20:34;7.22;;;2.78;;
5762;SDS011;2906;53.282;9.508;2023-09-19T06:21:37;11.80;;;1.90;;
5762;SDS011;2906;53.282;9.508;2023-09-19T06:22:39;9.68;;;2.00;;
5762;SDS011;2906;53.282;9.508;2023-09-19T06:23:41;9.27;;;1.80;;
5762;SDS011;2906;53.282;9.508;2023-09-19T06:24:44;5.72;;;1.92;;
5762;SDS011;2906;53.282;9.508;2023-09-19T06:25:47;5.20;;;2.05;;
5762;SDS011;2906;53.282;9.508;2023-09-19T06:26:51;11.70;;;2.63;;
5762;SDS011;2906;53.282;9.508;2023-09-19T06:27:53;10.43;;;2.08;;
5762;SDS011;2906;53.282;9.508;2023-09-19T06:28:56;12.88;;;3.05;;
5762;SDS011;2906;53.282;9.508;2023-09-19T06:29:57;12.25;;;2.47;;
5762;SDS011;2906;53.282;9.508;2023-09-19T06:31:02;6.82;;;1.88;;
5762;SDS011;2906;53.282;9.508;2023-09-19T06:32:06;6.32;;;1.65;;
5762;SDS011;2906;53.282;9.508;2023-09-19T06:33:11;7.70;;;2.20;;
5762;SDS011;2906;53.282;9.508;2023-09-19T06:34:13;14.90;;;2.55;;